sensor_id;sensor_type;location;lat;lon;timestamp;temperature;humidity
5554;DHT22;2800;49.528;8.666;2023-09-19T00:00:37;16.90;99.90
5554;DHT22;2800;49.528;8.666;2023-09-19T00:03:03;16.90;99.90
5554;DHT22;2800;49.528;8.666;2023-09-19T00:05:30;16.90;99.90
5554;DHT22;2800;49.528;8.666;2023-09-19T00:08:00;16.90;99.90
5554;DHT22;2800;49.528;8.666;2023-09-19T00:10:27;16.90;99.90
5554;DHT22;2800;49.528;8.666;2023-09-19T00:12:59;16.90;99.90
5554;DHT22;2800;49.528;8.666;2023-09-19T00:15:26;16.80;99.90
5554;DHT22;2800;49.528;8.666;2023-09-19T00:17:55;16.80;99.90
5554;DHT22;2800;49.528;8.666;2023-09-19T00:20:21;16.80;99.90
5554;DHT22;2800;49.528;8.666;2023-09-19T00:22:51;16.70;99.90
5554;DHT22;2800;49.528;8.666;2023-09-19T00:25:17;16.70;99.90
5554;DHT22;2800;49.528;8.666;2023-09-19T00:27:43;16.70;99.90
5554;DHT22;2800;49.528;8.666;2023-09-19T00:30:11;16.60;99.90
5554;DHT22;2800;49.528;8.666;2023-09-19T00:32:45;16.70;99.90
5554;DHT22;2800;49.528;8.666;2023-09-19T00:35:13;16.70;99.90
5554;DHT22;2800;49.528;8.666;2023-09-19T00:37:39;16.70;99.90
5554;DHT22;2800;49.528;8.666;2023-09-19T00:40:06;16.80;99.90
5554;DHT22;2800;49.528;8.666;2023-09-19T00:42:34;16.70;99.90
5554;DHT22;2800;49.528;8.666;2023-09-19T00:45:03;16.80;99.90
5554;DHT22;2800;49.528;8.666;2023-09-19T00:47:30;16.80;99.90
5554;DHT22;2800;49.528;8.666;2023-09-19T00:49:56;16.90;99.90
5554;DHT22;2800;49.528;8.666;2023-09-19T00:52:22;16.90;99.90
5554;DHT22;2800;49.528;8.666;2023-09-19T00:54:48;16.90;99.90
5554;DHT22;2800;49.528;8.666;2023-09-19T00:57:14;16.90;99.90
5554;DHT22;2800;49.528;8.666;2023-09-19T00:59:45;16.90;99.90
5554;DHT22;2800;49.528;8.666;2023-09-19T01:02:13;16.90;99.90
5554;DHT22;2800;49.528;8.666;2023-09-19T01:04:40;16.90;99.90
5554;DHT22;2800;49.528;8.666;2023-09-19T01:07:06;16.90;99.90
5554;DHT22;2800;49.528;8.666;2023-09-19T01:09:33;16.90;99.90
5554;DHT22;2800;49.528;8.666;2023-09-19T01:12:02;16.90;99.90
5554;DHT22;2800;49.528;8.666;2023-09-19T01:21:22;16.80;99.90
5554;DHT22;2800;49.528;8.666;2023-09-19T01:26:31;16.80;99.90
5554;DHT22;2800;49.528;8.666;2023-09-19T01:31:45;16.70;99.90
5554;DHT22;2800;49.528;8.666;2023-09-19T01:34:10;16.70;99.90
5554;DHT22;2800;49.528;8.666;2023-09-19T01:36:37;16.70;99.90
5554;DHT22;2800;49.528;8.666;2023-09-19T01:39:05;16.70;99.90
5554;DHT22;2800;49.528;8.666;2023-09-19T01:47:13;16.70;99.90
5554;DHT22;2800;49.528;8.666;2023-09-19T01:52:31;16.70;99.90
5554;DHT22;2800;49.528;8.666;2023-09-19T01:55:06;16.70;99.90
5554;DHT22;2800;49.528;8.666;2023-09-19T01:58:21;16.70;99.90
5554;DHT22;2800;49.528;8.666;2023-09-19T02:00:21;16.60;99.90
5554;DHT22;2800;49.528;8.666;2023-09-19T02:02:49;16.60;99.90
5554;DHT22;2800;49.528;8.666;2023-09-19T02:05:22;16.60;99.90
5554;DHT22;2800;49.528;8.666;2023-09-19T02:07:49;16.50;99.90
5554;DHT22;2800;49.528;8.666;2023-09-19T02:10:15;16.50;99.90
5554;DHT22;2800;49.528;8.666;2023-09-19T02:12:42;16.50;99.90
5554;DHT22;2800;49.528;8.666;2023-09-19T02:15:08;16.50;99.90
5554;DHT22;2800;49.528;8.666;2023-09-19T02:17:34;16.50;99.90
5554;DHT22;2800;49.528;8.666;2023-09-19T02:19:59;16.50;99.90
5554;DHT22;2800;49.528;8.666;2023-09-19T02:22:26;16.50;99.90
5554;DHT22;2800;49.528;8.666;2023-09-19T02:24:52;16.50;99.90
5554;DHT22;2800;49.528;8.666;2023-09-19T02:27:19;16.50;99.90
5554;DHT22;2800;49.528;8.666;2023-09-19T02:29:44;16.50;99.90
5554;DHT22;2800;49.528;8.666;2023-09-19T02:32:10;16.50;99.90
5554;DHT22;2800;49.528;8.666;2023-09-19T02:34:36;16.50;99.90
5554;DHT22;2800;49.528;8.666;2023-09-19T02:37:05;16.50;99.90
5554;DHT22;2800;49.528;8.666;2023-09-19T02:39:32;16.50;99.90
5554;DHT22;2800;49.528;8.666;2023-09-19T02:41:58;16.50;99.90
5554;DHT22;2800;49.528;8.666;2023-09-19T02:44:24;16.50;99.90
5554;DHT22;2800;49.528;8.666;2023-09-19T02:46:50;16.50;99.90
5554;DHT22;2800;49.528;8.666;2023-09-19T02:49:16;16.60;99.90
5554;DHT22;2800;49.528;8.666;2023-09-19T02:51:43;16.60;99.90
5554;DHT22;2800;49.528;8.666;2023-09-19T02:54:09;16.60;99.90
5554;DHT22;2800;49.528;8.666;2023-09-19T02:56:35;16.60;99.90
5554;DHT22;2800;49.528;8.666;2023-09-19T02:59:01;16.60;99.90
5554;DHT22;2800;49.528;8.666;2023-09-19T03:01:27;16.60;99.90
5554;DHT22;2800;49.528;8.666;2023-09-19T03:03:54;16.60;99.90
5554;DHT22;2800;49.528;8.666;2023-09-19T03:06:20;16.60;99.90
5554;DHT22;2800;49.528;8.666;2023-09-19T03:08:47;16.60;99.90
5554;DHT22;2800;49.528;8.666;2023-09-19T03:11:14;16.60;99.90
5554;DHT22;2800;49.528;8.666;2023-09-19T03:13:41;16.60;99.90
5554;DHT22;2800;49.528;8.666;2023-09-19T03:16:08;16.60;99.90
5554;DHT22;2800;49.528;8.666;2023-09-19T03:18:36;16.60;99.90
5554;DHT22;2800;49.528;8.666;2023-09-19T03:21:02;16.60;99.90
5554;DHT22;2800;49.528;8.666;2023-09-19T03:23:28;16.60;99.90
5554;DHT22;2800;49.528;8.666;2023-09-19T03:25:54;16.50;99.90
5554;DHT22;2800;49.528;8.666;2023-09-19T03:28:21;16.50;99.90
5554;DHT22;2800;49.528;8.666;2023-09-19T03:31:07;16.50;99.90
5554;DHT22;2800;49.528;8.666;2023-09-19T03:33:33;16.50;99.90
5554;DHT22;2800;49.528;8.666;2023-09-19T03:36:00;16.40;99.90
5554;DHT22;2800;49.528;8.666;2023-09-19T03:38:26;16.40;99.90
5554;DHT22;2800;49.528;8.666;2023-09-19T03:40:52;16.40;99.90
5554;DHT22;2800;49.528;8.666;2023-09-19T03:43:17;16.40;99.90
5554;DHT22;2800;49.528;8.666;2023-09-19T03:45:44;16.40;99.90
5554;DHT22;2800;49.528;8.666;2023-09-19T03:48:12;16.30;99.90
5554;DHT22;2800;49.528;8.666;2023-09-19T03:50:38;16.30;99.90
5554;DHT22;2800;49.528;8.666;2023-09-19T03:53:04;16.20;99.90
5554;DHT22;2800;49.528;8.666;2023-09-19T03:55:29;16.20;99.90
5554;DHT22;2800;49.528;8.666;2023-09-19T03:57:58;16.20;99.90
5554;DHT22;2800;49.528;8.666;2023-09-19T04:00:23;16.10;99.90
5554;DHT22;2800;49.528;8.666;2023-09-19T04:02:52;16.10;99.90
5554;DHT22;2800;49.528;8.666;2023-09-19T04:05:18;16.00;99.90
5554;DHT22;2800;49.528;8.666;2023-09-19T04:07:43;16.00;99.90
5554;DHT22;2800;49.528;8.666;2023-09-19T04:10:09;16.00;99.90
5554;DHT22;2800;49.528;8.666;2023-09-19T04:12:37;16.00;99.90
5554;DHT22;2800;49.528;8.666;2023-09-19T04:15:02;15.90;99.90
5554;DHT22;2800;49.528;8.666;2023-09-19T04:17:28;15.90;99.90
5554;DHT22;2800;49.528;8.666;2023-09-19T04:19:54;15.90;99.90
5554;DHT22;2800;49.528;8.666;2023-09-19T04:22:19;15.90;99.90
5554;DHT22;2800;49.528;8.666;2023-09-19T04:24:45;15.70;99.90
5554;DHT22;2800;49.528;8.666;2023-09-19T04:27:10;15.80;99.90
5554;DHT22;2800;49.528;8.666;2023-09-19T04:29:39;15.90;99.90
5554;DHT22;2800;49.528;8.666;2023-09-19T04:32:06;15.80;99.90
5554;DHT22;2800;49.528;8.666;2023-09-19T04:34:33;15.80;99.90
5554;DHT22;2800;49.528;8.666;2023-09-19T04:36:59;15.80;99.90
5554;DHT22;2800;49.528;8.666;2023-09-19T04:39:26;15.80;99.90
5554;DHT22;2800;49.528;8.666;2023-09-19T04:41:52;15.80;99.90
5554;DHT22;2800;49.528;8.666;2023-09-19T04:44:18;15.80;99.90
5554;DHT22;2800;49.528;8.666;2023-09-19T04:46:44;15.80;99.90
5554;DHT22;2800;49.528;8.666;2023-09-19T04:49:10;15.70;99.90
5554;DHT22;2800;49.528;8.666;2023-09-19T04:51:36;15.70;99.90
5554;DHT22;2800;49.528;8.666;2023-09-19T04:54:02;15.70;99.90
5554;DHT22;2800;49.528;8.666;2023-09-19T04:56:28;15.70;99.90
5554;DHT22;2800;49.528;8.666;2023-09-19T04:58:54;15.60;99.90
5554;DHT22;2800;49.528;8.666;2023-09-19T05:01:19;15.60;99.90
5554;DHT22;2800;49.528;8.666;2023-09-19T05:03:48;15.60;99.90
5554;DHT22;2800;49.528;8.666;2023-09-19T05:06:20;15.60;99.90
5554;DHT22;2800;49.528;8.666;2023-09-19T05:08:47;15.60;99.90
5554;DHT22;2800;49.528;8.666;2023-09-19T05:11:19;15.50;99.90
5554;DHT22;2800;49.528;8.666;2023-09-19T05:13:47;15.50;99.90
5554;DHT22;2800;49.528;8.666;2023-09-19T05:16:12;15.40;99.90
5554;DHT22;2800;49.528;8.666;2023-09-19T05:18:38;15.50;99.90
5554;DHT22;2800;49.528;8.666;2023-09-19T05:21:03;15.50;99.90
5554;DHT22;2800;49.528;8.666;2023-09-19T05:23:29;15.50;99.90
5554;DHT22;2800;49.528;8.666;2023-09-19T05:25:54;17.10;99.90
5554;DHT22;2800;49.528;8.666;2023-09-19T05:28:22;15.50;99.90
5554;DHT22;2800;49.528;8.666;2023-09-19T05:30:47;15.50;99.90
5554;DHT22;2800;49.528;8.666;2023-09-19T05:33:14;15.60;99.90
5554;DHT22;2800;49.528;8.666;2023-09-19T05:35:39;15.60;99.90
5554;DHT22;2800;49.528;8.666;2023-09-19T05:38:07;15.60;99.90
5554;DHT22;2800;49.528;8.666;2023-09-19T05:40:34;15.70;99.90
5554;DHT22;2800;49.528;8.666;2023-09-19T05:43:01;15.70;99.90
5554;DHT22;2800;49.528;8.666;2023-09-19T05:45:29;15.60;99.90
5554;DHT22;2800;49.528;8.666;2023-09-19T05:47:54;15.60;99.90
5554;DHT22;2800;49.528;8.666;2023-09-19T05:50:26;15.70;99.90
5554;DHT22;2800;49.528;8.666;2023-09-19T05:52:52;15.70;99.90
5554;DHT22;2800;49.528;8.666;2023-09-19T05:55:18;15.70;99.90
5554;DHT22;2800;49.528;8.666;2023-09-19T05:57:52;15.70;99.90
5554;DHT22;2800;49.528;8.666;2023-09-19T06:00:22;15.80;99.90
5554;DHT22;2800;49.528;8.666;2023-09-19T06:02:52;15.80;99.90
5554;DHT22;2800;49.528;8.666;2023-09-19T06:05:18;15.90;99.90
5554;DHT22;2800;49.528;8.666;2023-09-19T06:07:43;16.00;99.90
5554;DHT22;2800;49.528;8.666;2023-09-19T06:10:09;16.10;99.90
5554;DHT22;2800;49.528;8.666;2023-09-19T06:12:42;16.10;99.90
5554;DHT22;2800;49.528;8.666;2023-09-19T06:15:14;16.10;99.90
5554;DHT22;2800;49.528;8.666;2023-09-19T06:17:55;16.20;99.90
5554;DHT22;2800;49.528;8.666;2023-09-19T06:20:21;16.30;99.90
5554;DHT22;2800;49.528;8.666;2023-09-19T06:22:48;16.40;99.90
5554;DHT22;2800;49.528;8.666;2023-09-19T06:25:16;16.40;99.90
5554;DHT22;2800;49.528;8.666;2023-09-19T06:27:51;16.40;99.90
5554;DHT22;2800;49.528;8.666;2023-09-19T06:30:19;16.50;99.90
5554;DHT22;2800;49.528;8.666;2023-09-19T06:32:45;16.50;99.90
5554;DHT22;2800;49.528;8.666;2023-09-19T06:35:12;16.50;99.90
5554;DHT22;2800;49.528;8.666;2023-09-19T06:37:38;16.50;99.90
5554;DHT22;2800;49.528;8.666;2023-09-19T06:40:08;16.60;99.90
5554;DHT22;2800;49.528;8.666;2023-09-19T06:42:41;16.60;99.90
5554;DHT22;2800;49.528;8.666;2023-09-19T06:45:08;16.60;99.90
5554;DHT22;2800;49.528;8.666;2023-09-19T06:47:34;16.60;99.90
5554;DHT22;2800;49.528;8.666;2023-09-19T06:49:59;16.50;99.90
5554;DHT22;2800;49.528;8.666;2023-09-19T06:52:27;16.70;99.90
5554;DHT22;2800;49.528;8.666;2023-09-19T06:54:53;16.60;99.90
5554;DHT22;2800;49.528;8.666;2023-09-19T06:57:18;16.50;99.90
5554;DHT22;2800;49.528;8.666;2023-09-19T06:59:45;16.60;99.90
5554;DHT22;2800;49.528;8.666;2023-09-19T07:02:11;16.50;99.90
5554;DHT22;2800;49.528;8.666;2023-09-19T07:04:36;16.50;99.90
5554;DHT22;2800;49.528;8.666;2023-09-19T07:07:02;16.50;99.90
5554;DHT22;2800;49.528;8.666;2023-09-19T07:09:27;16.50;99.90
5554;DHT22;2800;49.528;8.666;2023-09-19T07:11:53;16.50;99.90
5554;DHT22;2800;49.528;8.666;2023-09-19T07:14:19;16.60;99.90
5554;DHT22;2800;49.528;8.666;2023-09-19T07:16:45;16.80;99.90
5554;DHT22;2800;49.528;8.666;2023-09-19T07:19:11;16.90;99.90
5554;DHT22;2800;49.528;8.666;2023-09-19T07:21:36;17.00;99.90
5554;DHT22;2800;49.528;8.666;2023-09-19T07:24:04;17.10;99.90
5554;DHT22;2800;49.528;8.666;2023-09-19T07:26:30;17.20;99.90
5554;DHT22;2800;49.528;8.666;2023-09-19T07:28:56;17.30;99.90
5554;DHT22;2800;49.528;8.666;2023-09-19T07:31:22;17.30;99.90
5554;DHT22;2800;49.528;8.666;2023-09-19T07:33:48;17.40;99.90
5554;DHT22;2800;49.528;8.666;2023-09-19T07:36:14;17.30;99.90
5554;DHT22;2800;49.528;8.666;2023-09-19T07:38:40;17.40;99.90
5554;DHT22;2800;49.528;8.666;2023-09-19T07:41:07;17.60;99.90
5554;DHT22;2800;49.528;8.666;2023-09-19T07:43:35;17.70;99.90
5554;DHT22;2800;49.528;8.666;2023-09-19T07:46:08;17.40;99.90
5554;DHT22;2800;49.528;8.666;2023-09-19T07:48:37;17.50;99.90
5554;DHT22;2800;49.528;8.666;2023-09-19T07:51:07;17.80;99.90
5554;DHT22;2800;49.528;8.666;2023-09-19T07:53:33;18.20;99.90
5554;DHT22;2800;49.528;8.666;2023-09-19T07:56:07;18.10;99.90
5554;DHT22;2800;49.528;8.666;2023-09-19T07:58:33;18.10;99.90
5554;DHT22;2800;49.528;8.666;2023-09-19T08:01:06;18.40;99.90
5554;DHT22;2800;49.528;8.666;2023-09-19T08:03:33;18.30;99.90
5554;DHT22;2800;49.528;8.666;2023-09-19T08:05:59;18.20;99.90
5554;DHT22;2800;49.528;8.666;2023-09-19T08:08:26;18.30;99.90
5554;DHT22;2800;49.528;8.666;2023-09-19T08:10:55;18.60;99.90
5554;DHT22;2800;49.528;8.666;2023-09-19T08:13:25;18.90;99.90
5554;DHT22;2800;49.528;8.666;2023-09-19T08:15:51;18.90;99.90
5554;DHT22;2800;49.528;8.666;2023-09-19T08:18:20;19.30;99.90
5554;DHT22;2800;49.528;8.666;2023-09-19T08:20:52;19.10;99.90
5554;DHT22;2800;49.528;8.666;2023-09-19T08:23:18;19.00;99.90
5554;DHT22;2800;49.528;8.666;2023-09-19T08:25:45;19.10;99.90
5554;DHT22;2800;49.528;8.666;2023-09-19T08:28:11;18.70;99.90
5554;DHT22;2800;49.528;8.666;2023-09-19T08:30:37;18.40;99.90
5554;DHT22;2800;49.528;8.666;2023-09-19T08:33:05;18.50;99.90
5554;DHT22;2800;49.528;8.666;2023-09-19T08:35:31;18.40;99.90
5554;DHT22;2800;49.528;8.666;2023-09-19T08:37:57;18.40;99.90
5554;DHT22;2800;49.528;8.666;2023-09-19T08:40:23;18.20;99.90
5554;DHT22;2800;49.528;8.666;2023-09-19T08:42:53;18.10;99.90
5554;DHT22;2800;49.528;8.666;2023-09-19T08:45:20;18.50;99.90
5554;DHT22;2800;49.528;8.666;2023-09-19T08:50:47;18.40;99.90
5554;DHT22;2800;49.528;8.666;2023-09-19T08:53:20;18.30;99.90
5554;DHT22;2800;49.528;8.666;2023-09-19T08:55:51;18.40;99.90
5554;DHT22;2800;49.528;8.666;2023-09-19T08:58:17;18.40;99.90
5554;DHT22;2800;49.528;8.666;2023-09-19T09:00:46;18.80;99.90
5554;DHT22;2800;49.528;8.666;2023-09-19T09:03:14;19.00;99.90
5554;DHT22;2800;49.528;8.666;2023-09-19T09:05:43;19.20;99.90
5554;DHT22;2800;49.528;8.666;2023-09-19T09:08:11;19.30;99.90
5554;DHT22;2800;49.528;8.666;2023-09-19T09:10:38;19.20;99.90
5554;DHT22;2800;49.528;8.666;2023-09-19T09:13:05;19.30;99.90
5554;DHT22;2800;49.528;8.666;2023-09-19T09:15:36;19.50;99.90
5554;DHT22;2800;49.528;8.666;2023-09-19T09:18:02;19.40;99.90
5554;DHT22;2800;49.528;8.666;2023-09-19T09:20:30;19.00;99.90
5554;DHT22;2800;49.528;8.666;2023-09-19T09:22:56;19.30;99.90
5554;DHT22;2800;49.528;8.666;2023-09-19T09:25:55;19.20;99.90
5554;DHT22;2800;49.528;8.666;2023-09-19T09:28:23;19.30;99.90
5554;DHT22;2800;49.528;8.666;2023-09-19T09:30:49;19.40;99.90
5554;DHT22;2800;49.528;8.666;2023-09-19T09:33:16;19.70;99.90
5554;DHT22;2800;49.528;8.666;2023-09-19T09:38:20;19.70;99.90
5554;DHT22;2800;49.528;8.666;2023-09-19T09:40:51;19.60;99.90
5554;DHT22;2800;49.528;8.666;2023-09-19T09:43:36;19.40;99.90
5554;DHT22;2800;49.528;8.666;2023-09-19T09:46:16;19.10;99.90
5554;DHT22;2800;49.528;8.666;2023-09-19T09:48:48;19.30;99.90
5554;DHT22;2800;49.528;8.666;2023-09-19T09:51:40;19.50;99.90
5554;DHT22;2800;49.528;8.666;2023-09-19T09:54:14;19.60;99.90
5554;DHT22;2800;49.528;8.666;2023-09-19T09:56:57;19.50;99.90
5554;DHT22;2800;49.528;8.666;2023-09-19T09:59:48;19.50;99.90
5554;DHT22;2800;49.528;8.666;2023-09-19T10:02:20;19.10;99.90
5554;DHT22;2800;49.528;8.666;2023-09-19T10:04:50;19.50;99.90
5554;DHT22;2800;49.528;8.666;2023-09-19T10:07:45;19.70;99.90
5554;DHT22;2800;49.528;8.666;2023-09-19T10:10:33;19.50;99.90
5554;DHT22;2800;49.528;8.666;2023-09-19T10:13:12;19.60;99.90
5554;DHT22;2800;49.528;8.666;2023-09-19T10:15:39;19.90;99.90
5554;DHT22;2800;49.528;8.666;2023-09-19T10:18:12;20.10;99.90
5554;DHT22;2800;49.528;8.666;2023-09-19T10:20:44;20.30;99.90
5554;DHT22;2800;49.528;8.666;2023-09-19T10:23:11;20.40;99.90
5554;DHT22;2800;49.528;8.666;2023-09-19T10:25:43;20.60;99.90
5554;DHT22;2800;49.528;8.666;2023-09-19T10:28:16;20.80;99.90
5554;DHT22;2800;49.528;8.666;2023-09-19T10:30:43;20.80;99.90
5554;DHT22;2800;49.528;8.666;2023-09-19T10:33:11;21.30;99.90
5554;DHT22;2800;49.528;8.666;2023-09-19T10:35:58;20.70;99.90
5554;DHT22;2800;49.528;8.666;2023-09-19T10:38:26;20.30;99.90
5554;DHT22;2800;49.528;8.666;2023-09-19T10:40:58;20.20;99.90
5554;DHT22;2800;49.528;8.666;2023-09-19T10:43:29;21.00;99.90
5554;DHT22;2800;49.528;8.666;2023-09-19T10:46:00;22.00;99.90
5554;DHT22;2800;49.528;8.666;2023-09-19T10:48:26;22.80;99.90
5554;DHT22;2800;49.528;8.666;2023-09-19T10:53:27;21.90;99.90
5554;DHT22;2800;49.528;8.666;2023-09-19T10:55:57;21.50;99.90
5554;DHT22;2800;49.528;8.666;2023-09-19T10:58:27;21.70;99.90
5554;DHT22;2800;49.528;8.666;2023-09-19T11:00:55;22.10;99.90
5554;DHT22;2800;49.528;8.666;2023-09-19T11:03:22;22.30;99.90
5554;DHT22;2800;49.528;8.666;2023-09-19T11:30:32;22.00;99.90
5554;DHT22;2800;49.528;8.666;2023-09-19T11:46:26;23.30;99.90
5554;DHT22;2800;49.528;8.666;2023-09-19T11:48:53;23.30;99.90
5554;DHT22;2800;49.528;8.666;2023-09-19T11:51:21;23.10;99.90
5554;DHT22;2800;49.528;8.666;2023-09-19T11:54:03;23.10;99.90
5554;DHT22;2800;49.528;8.666;2023-09-19T11:56:29;23.70;99.90
5554;DHT22;2800;49.528;8.666;2023-09-19T11:58:57;23.30;99.90
5554;DHT22;2800;49.528;8.666;2023-09-19T12:01:25;24.40;99.90
5554;DHT22;2800;49.528;8.666;2023-09-19T12:03:55;24.10;99.90
5554;DHT22;2800;49.528;8.666;2023-09-19T12:06:28;22.90;99.90
5554;DHT22;2800;49.528;8.666;2023-09-19T12:08:58;22.60;99.90
5554;DHT22;2800;49.528;8.666;2023-09-19T12:11:31;23.10;99.90
5554;DHT22;2800;49.528;8.666;2023-09-19T12:14:01;24.10;99.90
5554;DHT22;2800;49.528;8.666;2023-09-19T12:16:28;24.20;99.90
5554;DHT22;2800;49.528;8.666;2023-09-19T12:18:57;24.50;99.90
5554;DHT22;2800;49.528;8.666;2023-09-19T12:21:24;24.20;99.90
5554;DHT22;2800;49.528;8.666;2023-09-19T12:24:06;23.40;99.90
5554;DHT22;2800;49.528;8.666;2023-09-19T12:26:42;24.20;99.90
5554;DHT22;2800;49.528;8.666;2023-09-19T12:29:19;23.80;99.90
5554;DHT22;2800;49.528;8.666;2023-09-19T12:31:57;24.20;99.90
5554;DHT22;2800;49.528;8.666;2023-09-19T12:34:23;23.20;99.90
5554;DHT22;2800;49.528;8.666;2023-09-19T12:39:43;24.10;99.90
5554;DHT22;2800;49.528;8.666;2023-09-19T12:42:15;23.90;99.90
5554;DHT22;2800;49.528;8.666;2023-09-19T12:44:45;24.10;99.90
5554;DHT22;2800;49.528;8.666;2023-09-19T12:47:16;24.60;99.90
5554;DHT22;2800;49.528;8.666;2023-09-19T12:50:14;24.10;99.90
5554;DHT22;2800;49.528;8.666;2023-09-19T12:52:49;23.90;99.90
5554;DHT22;2800;49.528;8.666;2023-09-19T12:55:22;24.60;99.90
5554;DHT22;2800;49.528;8.666;2023-09-19T13:00:36;24.30;99.90
5554;DHT22;2800;49.528;8.666;2023-09-19T13:08:24;25.00;99.90
5554;DHT22;2800;49.528;8.666;2023-09-19T13:11:11;24.50;99.90
5554;DHT22;2800;49.528;8.666;2023-09-19T13:13:45;24.10;99.90
5554;DHT22;2800;49.528;8.666;2023-09-19T13:16:14;24.40;99.90
5554;DHT22;2800;49.528;8.666;2023-09-19T13:18:58;24.40;99.90
5554;DHT22;2800;49.528;8.666;2023-09-19T13:21:31;24.90;99.90
5554;DHT22;2800;49.528;8.666;2023-09-19T13:24:22;25.10;99.90
5554;DHT22;2800;49.528;8.666;2023-09-19T13:26:56;24.20;99.90
5554;DHT22;2800;49.528;8.666;2023-09-19T13:29:22;24.70;99.90
5554;DHT22;2800;49.528;8.666;2023-09-19T13:31:52;25.70;99.90
5554;DHT22;2800;49.528;8.666;2023-09-19T13:34:21;25.70;99.90
5554;DHT22;2800;49.528;8.666;2023-09-19T13:36:47;25.90;99.90
5554;DHT22;2800;49.528;8.666;2023-09-19T13:39:16;25.70;99.90
5554;DHT22;2800;49.528;8.666;2023-09-19T13:41:44;25.70;99.90
5554;DHT22;2800;49.528;8.666;2023-09-19T13:44:10;25.20;99.90
5554;DHT22;2800;49.528;8.666;2023-09-19T13:46:36;24.80;99.90
5554;DHT22;2800;49.528;8.666;2023-09-19T13:49:02;24.80;99.90
5554;DHT22;2800;49.528;8.666;2023-09-19T13:51:31;24.30;99.90
5554;DHT22;2800;49.528;8.666;2023-09-19T13:53:57;24.50;99.90
5554;DHT22;2800;49.528;8.666;2023-09-19T13:56:22;24.30;99.90
5554;DHT22;2800;49.528;8.666;2023-09-19T13:58:49;24.50;99.90
5554;DHT22;2800;49.528;8.666;2023-09-19T14:01:14;24.40;99.90
5554;DHT22;2800;49.528;8.666;2023-09-19T14:03:41;25.20;99.90
5554;DHT22;2800;49.528;8.666;2023-09-19T14:06:13;25.10;99.90
5554;DHT22;2800;49.528;8.666;2023-09-19T14:08:38;24.30;99.90
5554;DHT22;2800;49.528;8.666;2023-09-19T14:11:08;24.70;99.90
5554;DHT22;2800;49.528;8.666;2023-09-19T14:13:33;24.90;99.90
5554;DHT22;2800;49.528;8.666;2023-09-19T14:16:05;23.10;99.90
5554;DHT22;2800;49.528;8.666;2023-09-19T14:18:32;22.80;99.90
5554;DHT22;2800;49.528;8.666;2023-09-19T14:20:58;22.40;99.90
5554;DHT22;2800;49.528;8.666;2023-09-19T14:23:23;22.50;99.90
5554;DHT22;2800;49.528;8.666;2023-09-19T14:25:50;22.60;99.90
5554;DHT22;2800;49.528;8.666;2023-09-19T14:28:17;23.20;99.90
5554;DHT22;2800;49.528;8.666;2023-09-19T14:30:43;23.00;99.90
5554;DHT22;2800;49.528;8.666;2023-09-19T14:33:09;23.60;99.90
5554;DHT22;2800;49.528;8.666;2023-09-19T14:35:37;23.80;99.90
5554;DHT22;2800;49.528;8.666;2023-09-19T14:38:03;24.20;99.90
5554;DHT22;2800;49.528;8.666;2023-09-19T14:40:28;24.50;99.90
5554;DHT22;2800;49.528;8.666;2023-09-19T14:42:54;24.00;99.90
5554;DHT22;2800;49.528;8.666;2023-09-19T14:45:19;23.90;99.90
5554;DHT22;2800;49.528;8.666;2023-09-19T14:47:50;23.40;99.90
5554;DHT22;2800;49.528;8.666;2023-09-19T14:50:17;23.40;99.90
5554;DHT22;2800;49.528;8.666;2023-09-19T14:52:43;23.20;99.90
5554;DHT22;2800;49.528;8.666;2023-09-19T14:55:09;22.80;99.90
5554;DHT22;2800;49.528;8.666;2023-09-19T14:57:39;22.30;99.90
5554;DHT22;2800;49.528;8.666;2023-09-19T15:00:06;22.60;99.90
5554;DHT22;2800;49.528;8.666;2023-09-19T15:02:37;23.00;99.90
5554;DHT22;2800;49.528;8.666;2023-09-19T15:05:03;23.00;99.90
5554;DHT22;2800;49.528;8.666;2023-09-19T15:07:28;23.40;99.90
5554;DHT22;2800;49.528;8.666;2023-09-19T15:09:54;23.80;99.90
5554;DHT22;2800;49.528;8.666;2023-09-19T15:12:19;23.20;99.90
5554;DHT22;2800;49.528;8.666;2023-09-19T15:14:45;24.00;99.90
5554;DHT22;2800;49.528;8.666;2023-09-19T15:17:10;24.60;99.90
5554;DHT22;2800;49.528;8.666;2023-09-19T15:19:36;23.90;99.90
5554;DHT22;2800;49.528;8.666;2023-09-19T15:22:03;24.40;99.90
5554;DHT22;2800;49.528;8.666;2023-09-19T15:24:29;24.40;99.90
5554;DHT22;2800;49.528;8.666;2023-09-19T15:26:54;24.70;99.90
5554;DHT22;2800;49.528;8.666;2023-09-19T15:29:21;24.50;99.90
5554;DHT22;2800;49.528;8.666;2023-09-19T15:31:46;24.70;99.90
5554;DHT22;2800;49.528;8.666;2023-09-19T15:34:12;25.10;99.90
5554;DHT22;2800;49.528;8.666;2023-09-19T15:36:41;25.20;99.90
5554;DHT22;2800;49.528;8.666;2023-09-19T15:39:07;24.90;99.90
5554;DHT22;2800;49.528;8.666;2023-09-19T15:41:37;24.40;99.90
5554;DHT22;2800;49.528;8.666;2023-09-19T15:44:04;24.20;99.90
5554;DHT22;2800;49.528;8.666;2023-09-19T15:46:31;23.40;99.90
5554;DHT22;2800;49.528;8.666;2023-09-19T15:49:00;23.70;99.90
5554;DHT22;2800;49.528;8.666;2023-09-19T15:51:26;24.20;99.90
5554;DHT22;2800;49.528;8.666;2023-09-19T15:53:54;24.00;99.90
5554;DHT22;2800;49.528;8.666;2023-09-19T15:56:22;24.30;99.90
5554;DHT22;2800;49.528;8.666;2023-09-19T15:58:49;24.90;99.90
5554;DHT22;2800;49.528;8.666;2023-09-19T16:01:15;24.50;99.90
5554;DHT22;2800;49.528;8.666;2023-09-19T16:03:51;24.90;99.90
5554;DHT22;2800;49.528;8.666;2023-09-19T16:06:20;24.70;99.90
5554;DHT22;2800;49.528;8.666;2023-09-19T16:08:47;24.80;99.90
5554;DHT22;2800;49.528;8.666;2023-09-19T16:11:14;24.40;99.90
5554;DHT22;2800;49.528;8.666;2023-09-19T16:13:40;24.30;99.90
5554;DHT22;2800;49.528;8.666;2023-09-19T16:16:17;24.80;99.90
5554;DHT22;2800;49.528;8.666;2023-09-19T16:18:46;24.90;99.90
5554;DHT22;2800;49.528;8.666;2023-09-19T16:21:13;24.30;99.90
5554;DHT22;2800;49.528;8.666;2023-09-19T16:23:38;24.10;99.90
5554;DHT22;2800;49.528;8.666;2023-09-19T16:26:05;23.60;99.90
5554;DHT22;2800;49.528;8.666;2023-09-19T16:28:35;23.50;99.90
5554;DHT22;2800;49.528;8.666;2023-09-19T16:31:03;23.40;99.90
5554;DHT22;2800;49.528;8.666;2023-09-19T16:33:33;22.80;99.90
5554;DHT22;2800;49.528;8.666;2023-09-19T16:35:59;22.60;99.90
5554;DHT22;2800;49.528;8.666;2023-09-19T16:38:26;23.00;99.90
5554;DHT22;2800;49.528;8.666;2023-09-19T16:40:53;23.10;99.90
5554;DHT22;2800;49.528;8.666;2023-09-19T16:43:19;22.60;99.90
5554;DHT22;2800;49.528;8.666;2023-09-19T16:45:56;23.00;99.90
5554;DHT22;2800;49.528;8.666;2023-09-19T16:48:23;22.90;99.90
5554;DHT22;2800;49.528;8.666;2023-09-19T16:50:49;22.50;99.90
5554;DHT22;2800;49.528;8.666;2023-09-19T16:53:16;22.00;99.90
5554;DHT22;2800;49.528;8.666;2023-09-19T16:55:46;21.70;99.90
5554;DHT22;2800;49.528;8.666;2023-09-19T16:58:12;21.50;99.90
5554;DHT22;2800;49.528;8.666;2023-09-19T17:00:37;21.40;99.90
5554;DHT22;2800;49.528;8.666;2023-09-19T17:03:04;21.50;99.90
5554;DHT22;2800;49.528;8.666;2023-09-19T17:05:30;21.40;99.90
5554;DHT22;2800;49.528;8.666;2023-09-19T17:07:56;21.30;99.90
5554;DHT22;2800;49.528;8.666;2023-09-19T17:10:21;21.20;99.90
5554;DHT22;2800;49.528;8.666;2023-09-19T17:12:47;21.10;99.90
5554;DHT22;2800;49.528;8.666;2023-09-19T17:15:13;21.00;99.90
5554;DHT22;2800;49.528;8.666;2023-09-19T17:17:38;21.00;99.90
5554;DHT22;2800;49.528;8.666;2023-09-19T17:20:08;21.00;99.90
5554;DHT22;2800;49.528;8.666;2023-09-19T17:22:33;20.90;99.90
5554;DHT22;2800;49.528;8.666;2023-09-19T17:24:59;20.80;99.90
5554;DHT22;2800;49.528;8.666;2023-09-19T17:27:25;20.70;99.90